Time;durP1;ratioP1;P1;durP2;ratioP2;P2;SDS_P1;SDS_P2;PMS_P1;PMS_P2;Temp;Humidity;BMP_temperature;BMP_pressure;BME280_temperature;BME280_humidity;BME280_pressure;Samples;Min_cycle;Max_cycle;Signal;HPM_P1;HPM_P2
2021/11/17 02:26:28;;;;;;;48.38;22.38;;;6.20;99.90;;;;;;5014942;28;20524;-84
2021/11/17 02:29:45;;;;;;;54.78;25.17;;;6.30;99.90;;;;;;5017559;28;20080;-84
2021/11/17 02:32:29;;;;;;;48.13;22.08;;;6.30;99.90;;;;;;4906967;29;20098;-84
2021/11/17 02:34:55;;;;;;;51.15;24.55;;;6.30;99.90;;;;;;4997794;28;20091;-84
2021/11/17 02:37:36;;;;;;;46.78;22.67;;;6.30;99.90;;;;;;5017095;28;20598;-84
2021/11/17 02:40:18;;;;;;;50.35;23.73;;;6.30;99.90;;;;;;5016992;28;20050;-84
2021/11/17 02:42:58;;;;;;;52.38;24.42;;;6.30;99.90;;;;;;5017578;28;20072;-83
2021/11/17 02:45:37;;;;;;;50.58;23.48;;;6.30;99.90;;;;;;5017846;28;20051;-84
2021/11/17 02:48:12;;;;;;;49.17;22.90;;;6.30;99.90;;;;;;5014623;28;20054;-85
2021/11/17 02:51:10;;;;;;;50.30;23.67;;;6.30;99.90;;;;;;5017246;28;20405;-84
2021/11/17 02:53:49;;;;;;;49.47;23.30;;;6.30;99.90;;;;;;5012711;28;20054;-84
2021/11/17 02:56:48;;;;;;;49.80;22.45;;;6.30;99.90;;;;;;5015010;28;20053;-84
2021/11/17 02:59:31;;;;;;;47.10;23.27;;;6.40;99.90;;;;;;5011811;28;20055;-84
2021/11/17 03:02:12;;;;;;;53.00;24.33;;;6.30;99.90;;;;;;5016259;28;20046;-84
2021/11/17 03:05:12;;;;;;;50.55;24.35;;;6.40;99.90;;;;;;5017131;28;20496;-84
2021/11/17 03:07:52;;;;;;;48.28;23.35;;;6.40;99.90;;;;;;5015938;28;20091;-85
2021/11/17 03:10:35;;;;;;;52.67;24.75;;;6.40;99.90;;;;;;4999618;28;20080;-84
2021/11/17 03:13:52;;;;;;;53.83;24.83;;;6.40;99.90;;;;;;5016744;28;20103;-84
2021/11/17 03:16:47;;;;;;;47.95;23.08;;;6.40;99.90;;;;;;4998752;28;20064;-84
2021/11/17 03:19:39;;;;;;;53.85;24.48;;;6.40;99.90;;;;;;4982053;28;20053;-84
2021/11/17 03:22:30;;;;;;;50.83;25.02;;;6.40;99.90;;;;;;5016140;28;20136;-84
2021/11/17 03:25:05;;;;;;;55.17;24.75;;;6.40;99.90;;;;;;5016205;28;20045;-84
2021/11/17 03:27:49;;;;;;;60.40;26.60;;;6.40;99.90;;;;;;5016193;28;20054;-84
2021/11/17 03:30:14;;;;;;;58.17;25.55;;;6.40;99.90;;;;;;5015100;28;20052;-84
2021/11/17 03:33:11;;;;;;;55.78;25.88;;;6.50;99.90;;;;;;5016168;28;20061;-84
2021/11/17 03:35:39;;;;;;;57.13;25.83;;;6.50;99.90;;;;;;5016080;28;20508;-83
2021/11/17 03:38:11;;;;;;;54.63;24.58;;;6.50;99.90;;;;;;5016257;28;20131;-84
2021/11/17 03:41:16;;;;;;;51.08;24.92;;;6.50;99.90;;;;;;5016350;28;20049;-84
2021/11/17 03:44:19;;;;;;;49.90;23.42;;;6.50;99.90;;;;;;4973647;28;20096;-84
2021/11/17 03:47:03;;;;;;;57.30;26.60;;;6.50;99.90;;;;;;4998508;28;20388;-84
2021/11/17 03:49:40;;;;;;;51.45;24.50;;;6.50;99.90;;;;;;5015343;28;20112;-84
2021/11/17 03:52:15;;;;;;;53.90;26.95;;;6.50;99.90;;;;;;5010795;28;20044;-84
2021/11/17 03:54:59;;;;;;;57.33;26.27;;;6.50;99.90;;;;;;5012994;28;20681;-84
2021/11/17 03:57:28;;;;;;;55.65;26.67;;;6.50;99.90;;;;;;5015636;28;20500;-84
2021/11/17 03:59:56;;;;;;;59.33;26.50;;;6.50;99.90;;;;;;5015338;28;20412;-84
2021/11/17 04:02:35;;;;;;;53.65;26.02;;;6.50;99.90;;;;;;5015894;28;20053;-84
2021/11/17 04:05:29;;;;;;;61.25;26.42;;;6.50;99.90;;;;;;5013954;28;20427;-84
2021/11/17 04:07:58;;;;;;;;;;;6.50;99.90;;;;;;5016535;28;20041;-84
2021/11/17 04:10:26;;;;;;;60.92;26.55;;;6.50;99.90;;;;;;5015645;28;19928;-84
2021/11/17 04:13:04;;;;;;;63.53;28.05;;;6.50;99.90;;;;;;5015469;28;20124;-83
2021/11/17 04:16:06;;;;;;;57.47;27.58;;;6.50;99.90;;;;;;5016065;28;20084;-84
2021/11/17 04:18:50;;;;;;;53.05;25.83;;;6.60;99.90;;;;;;5014795;28;20056;-84
2021/11/17 04:21:18;;;;;;;55.42;25.92;;;6.50;99.90;;;;;;5015335;28;20099;-83
2021/11/17 04:23:59;;;;;;;51.08;25.92;;;6.60;99.90;;;;;;5015118;28;20527;-84
2021/11/17 04:26:37;;;;;;;61.28;28.00;;;6.60;99.90;;;;;;5014231;28;20077;-84
2021/11/17 04:29:31;;;;;;;61.40;28.00;;;6.60;99.90;;;;;;5015501;28;20146;-83
2021/11/17 04:32:13;;;;;;;60.38;26.80;;;6.60;99.90;;;;;;5011267;28;20144;-82
2021/11/17 04:35:00;;;;;;;58.30;26.10;;;6.60;99.90;;;;;;5014373;28;20444;-82
2021/11/17 04:37:45;;;;;;;59.92;27.58;;;6.60;99.90;;;;;;5014748;28;20045;-83
2021/11/17 04:40:26;;;;;;;57.65;26.55;;;6.70;99.90;;;;;;4997392;28;20915;-82
2021/11/17 04:43:19;;;;;;;65.15;27.83;;;6.70;99.90;;;;;;5013866;28;20045;-83
2021/11/17 04:45:57;;;;;;;55.33;26.10;;;6.70;99.90;;;;;;4998731;28;20481;-83
2021/11/17 04:48:54;;;;;;;56.78;27.77;;;6.60;99.90;;;;;;5003597;28;20099;-83
2021/11/17 04:51:26;;;;;;;59.10;27.70;;;6.70;99.90;;;;;;5018796;28;20041;-83
2021/11/17 04:54:04;;;;;;;61.85;29.35;;;6.70;99.90;;;;;;5019523;28;20053;-85
2021/11/17 04:56:58;;;;;;;58.35;28.88;;;6.70;99.90;;;;;;5019657;28;20392;-84
2021/11/17 04:59:33;;;;;;;67.47;30.13;;;6.70;99.90;;;;;;5018735;28;20096;-83
2021/11/17 05:02:14;;;;;;;58.83;29.50;;;6.70;99.90;;;;;;5018268;28;20054;-85
2021/11/17 05:05:15;;;;;;;58.40;27.40;;;6.70;99.90;;;;;;5019502;28;20490;-84
2021/11/17 05:08:37;;;;;;;65.45;30.33;;;6.70;99.90;;;;;;4921435;29;20047;-84
2021/11/17 05:11:15;;;;;;;64.97;30.20;;;6.70;99.90;;;;;;4979231;28;20039;-84
2021/11/17 05:13:53;;;;;;;55.00;26.90;;;6.80;99.90;;;;;;4978995;28;20461;-84
2021/11/17 05:16:43;;;;;;;66.75;30.98;;;6.80;99.90;;;;;;5002754;28;20452;-84
2021/11/17 05:19:24;;;;;;;70.65;31.90;;;6.70;99.90;;;;;;5018781;28;20098;-85
2021/11/17 05:22:06;;;;;;;59.55;29.40;;;6.80;99.90;;;;;;5017756;28;20038;-83
2021/11/17 05:24:55;;;;;;;59.97;30.02;;;6.80;99.90;;;;;;5018233;28;20046;-84
2021/11/17 05:27:42;;;;;;;67.45;31.80;;;6.80;99.90;;;;;;5004519;28;20050;-84
2021/11/17 05:30:14;;;;;;;64.00;31.33;;;6.80;99.90;;;;;;5017622;28;20404;-85
2021/11/17 05:32:49;;;;;;;60.83;30.52;;;6.80;99.90;;;;;;5018736;28;20049;-84
2021/11/17 05:35:43;;;;;;;62.83;31.88;;;6.80;99.90;;;;;;5017991;28;20033;-85
2021/11/17 05:38:32;;;;;;;70.43;34.72;;;6.90;99.90;;;;;;5017602;28;20495;-84
2021/11/17 05:41:13;;;;;;;67.53;33.53;;;6.90;99.90;;;;;;5018447;28;20045;-85
2021/11/17 05:43:47;;;;;;;68.50;34.63;;;6.90;99.90;;;;;;5008683;28;20433;-85
2021/11/17 05:46:23;;;;;;;69.32;34.03;;;6.90;99.90;;;;;;5018008;28;20045;-85
2021/11/17 05:49:22;;;;;;;71.78;34.92;;;6.90;99.90;;;;;;5002432;28;20048;-84
2021/11/17 05:52:32;;;;;;;65.40;32.70;;;6.90;99.90;;;;;;5017892;28;20045;-84
2021/11/17 05:55:27;;;;;;;72.97;33.75;;;6.90;99.90;;;;;;5004908;28;20046;-84
2021/11/17 05:58:02;;;;;;;71.28;32.72;;;6.90;99.90;;;;;;5014073;28;20056;-85
2021/11/17 06:00:58;;;;;;;81.45;37.85;;;6.90;99.90;;;;;;5017696;28;20063;-85
2021/11/17 06:04:02;;;;;;;67.78;32.25;;;7.00;99.90;;;;;;5017387;28;20037;-85
2021/11/17 06:06:28;;;;;;;82.07;37.42;;;7.00;99.90;;;;;;5016183;28;20075;-85
2021/11/17 06:08:56;;;;;;;80.07;36.80;;;7.00;99.90;;;;;;5017920;28;20473;-85
2021/11/17 06:11:29;;;;;;;77.07;35.88;;;7.00;99.90;;;;;;5015539;28;20037;-84
2021/11/17 06:13:57;;;;;;;67.90;33.63;;;7.00;99.90;;;;;;5007672;28;20041;-85
2021/11/17 06:16:22;;;;;;;82.38;37.38;;;7.10;99.90;;;;;;5017243;28;20485;-84
2021/11/17 06:18:48;;;;;;;69.18;33.33;;;7.00;99.90;;;;;;5016289;28;20079;-85
2021/11/17 06:21:15;;;;;;;74.35;37.08;;;7.10;99.90;;;;;;5006665;28;20428;-85
2021/11/17 06:23:55;;;;;;;92.18;39.75;;;7.10;99.90;;;;;;5016775;28;20068;-85
2021/11/17 06:26:29;;;;;;;80.10;37.78;;;7.10;99.90;;;;;;5015534;28;20140;-85
2021/11/17 06:28:58;;;;;;;74.05;34.65;;;7.10;99.90;;;;;;5017096;28;20048;-85
2021/11/17 06:31:25;;;;;;;84.93;38.45;;;7.10;99.90;;;;;;5017210;28;20432;-84
2021/11/17 06:33:50;;;;;;;90.03;39.78;;;7.10;99.90;;;;;;5006348;28;20484;-84
2021/11/17 06:36:17;;;;;;;84.60;37.95;;;7.20;99.90;;;;;;5013373;28;20156;-85
2021/11/17 06:38:44;;;;;;;76.95;36.85;;;7.20;99.90;;;;;;5010588;28;20045;-84
2021/11/17 06:41:10;;;;;;;81.32;37.78;;;7.20;99.90;;;;;;4996954;28;20497;-85
2021/11/17 06:43:36;;;;;;;61.95;32.67;;;7.20;99.90;;;;;;5003668;28;20053;-84
2021/11/17 06:46:02;;;;;;;67.15;33.83;;;7.20;99.90;;;;;;5016767;28;20405;-84
2021/11/17 06:48:30;;;;;;;75.32;36.88;;;7.20;99.90;;;;;;5017033;28;20447;-84
2021/11/17 06:50:58;;;;;;;83.78;38.38;;;7.20;99.90;;;;;;5017925;28;20057;-84
2021/11/17 06:53:30;;;;;;;86.60;39.08;;;7.30;99.90;;;;;;5016433;28;20037;-84
2021/11/17 06:55:56;;;;;;;82.10;37.67;;;7.20;99.90;;;;;;5016508;28;20561;-86
2021/11/17 06:58:30;;;;;;;88.40;38.22;;;7.20;99.90;;;;;;5014848;28;20030;-85
2021/11/17 07:00:56;;;;;;;80.60;37.10;;;7.20;99.90;;;;;;5009874;28;20037;-85
2021/11/17 07:03:29;;;;;;;84.28;37.22;;;7.20;99.90;;;;;;5016439;28;20090;-85
2021/11/17 07:05:54;;;;;;;81.03;38.53;;;7.30;99.90;;;;;;5016682;28;20489;-85
2021/11/17 07:08:20;;;;;;;83.03;37.65;;;7.30;99.90;;;;;;5013497;28;20041;-84
2021/11/17 07:10:46;;;;;;;86.55;38.90;;;7.30;99.90;;;;;;5012086;28;20124;-84
2021/11/17 07:13:12;;;;;;;83.95;37.80;;;7.30;99.90;;;;;;5014967;28;20200;-85
2021/11/17 07:15:38;;;;;;;79.15;37.08;;;7.30;99.90;;;;;;5014688;28;20038;-85
2021/11/17 07:18:05;;;;;;;69.45;34.55;;;7.30;99.90;;;;;;5015918;28;20045;-84
2021/11/17 07:20:31;;;;;;;75.75;34.97;;;7.30;99.90;;;;;;5016096;28;20139;-85
2021/11/17 07:22:57;;;;;;;84.18;37.83;;;7.30;99.90;;;;;;5015681;28;20107;-85
2021/11/17 07:25:23;;;;;;;88.28;38.08;;;7.30;99.90;;;;;;5016521;28;20463;-86
2021/11/17 07:27:50;;;;;;;88.82;37.70;;;7.40;99.90;;;;;;5014908;28;20412;-84
2021/11/17 07:30:20;;;;;;;78.47;36.53;;;7.40;99.90;;;;;;5005646;28;20447;-86
2021/11/17 07:32:46;;;;;;;85.15;37.85;;;7.40;99.90;;;;;;5016241;28;20129;-85
2021/11/17 07:35:11;;;;;;;94.18;39.00;;;7.30;99.90;;;;;;5015764;28;20132;-85
2021/11/17 07:37:39;;;;;;;90.78;39.33;;;7.40;99.90;;;;;;5015979;28;20041;-85
2021/11/17 07:40:08;;;;;;;82.38;36.30;;;7.40;99.90;;;;;;5014785;28;20041;-84
2021/11/17 07:42:36;;;;;;;96.35;39.65;;;7.40;99.90;;;;;;5015426;28;20145;-84
2021/11/17 07:45:03;;;;;;;81.43;36.20;;;7.40;99.90;;;;;;5012187;28;20046;-85
2021/11/17 07:47:29;;;;;;;93.90;39.13;;;7.50;99.90;;;;;;5000764;28;20051;-87
2021/11/17 07:49:58;;;;;;;78.50;35.60;;;7.50;99.90;;;;;;5015313;28;20518;-85
2021/11/17 07:52:23;;;;;;;91.95;37.58;;;7.40;99.90;;;;;;5012201;28;20041;-85
2021/11/17 07:54:49;;;;;;;85.60;36.72;;;7.50;99.90;;;;;;5015961;28;20044;-84
2021/11/17 07:57:17;;;;;;;86.90;37.28;;;7.50;99.90;;;;;;5013711;28;20429;-85
2021/11/17 07:59:43;;;;;;;87.40;36.85;;;7.50;99.90;;;;;;5018266;28;20042;-83
2021/11/17 08:02:12;;;;;;;76.00;34.80;;;7.50;99.90;;;;;;5013128;28;20037;-85
2021/11/17 08:04:39;;;;;;;88.22;37.45;;;7.50;99.90;;;;;;5014809;28;20041;-84
2021/11/17 08:07:10;;;;;;;84.80;36.72;;;7.50;99.90;;;;;;5011070;28;20045;-85
2021/11/17 08:09:35;;;;;;;78.47;35.78;;;7.60;99.90;;;;;;5015823;28;20068;-85
2021/11/17 08:12:02;;;;;;;87.65;36.08;;;7.50;99.90;;;;;;5004276;28;20456;-85
2021/11/17 08:14:28;;;;;;;84.07;35.75;;;7.60;99.90;;;;;;4996027;28;20045;-85
2021/11/17 08:16:53;;;;;;;76.05;35.30;;;7.60;99.90;;;;;;4995814;28;20049;-86
2021/11/17 08:19:19;;;;;;;79.35;34.88;;;7.60;99.90;;;;;;4995014;28;20093;-86
2021/11/17 08:21:44;;;;;;;83.57;34.75;;;7.60;99.90;;;;;;5014614;28;20040;-84
2021/11/17 08:24:10;;;;;;;94.03;37.95;;;7.60;99.90;;;;;;5012988;28;20492;-85
2021/11/17 08:26:35;;;;;;;90.05;36.45;;;7.60;99.90;;;;;;5014509;28;20053;-84
2021/11/17 08:29:01;;;;;;;86.93;35.17;;;7.70;99.90;;;;;;5013966;28;20049;-85
2021/11/17 08:31:27;;;;;;;93.55;36.83;;;7.70;99.90;;;;;;5005382;28;20042;-85
2021/11/17 08:33:53;;;;;;;86.47;34.60;;;7.70;99.90;;;;;;4996334;28;20056;-85
2021/11/17 08:36:20;;;;;;;85.50;37.08;;;7.70;99.90;;;;;;4994811;28;20085;-84
2021/11/17 08:38:50;;;;;;;87.80;36.42;;;7.80;99.90;;;;;;4995004;28;20054;-85
2021/11/17 08:41:17;;;;;;;91.55;36.88;;;7.80;99.90;;;;;;4994466;28;20448;-83
2021/11/17 08:43:42;;;;;;;84.28;35.60;;;7.80;99.90;;;;;;5013129;28;20821;-84
2021/11/17 08:46:09;;;;;;;90.35;36.85;;;7.90;99.90;;;;;;5012389;28;20053;-84
2021/11/17 08:48:37;;;;;;;92.28;36.17;;;7.90;99.90;;;;;;5014500;28;20045;-83
2021/11/17 08:51:05;;;;;;;86.63;35.70;;;7.90;99.90;;;;;;5014721;28;20041;-84
2021/11/17 08:53:33;;;;;;;91.53;37.10;;;7.90;99.90;;;;;;5019177;23;20058;-83
2021/11/17 08:56:01;;;;;;;94.45;37.35;;;8.00;99.90;;;;;;5015048;28;20044;-85
2021/11/17 08:58:33;;;;;;;76.82;34.22;;;8.00;99.90;;;;;;5013919;28;20121;-84
2021/11/17 09:01:11;;;;;;;80.07;35.13;;;8.00;99.90;;;;;;5009370;28;20424;-85
2021/11/17 09:03:46;;;;;;;95.18;36.95;;;8.10;99.90;;;;;;5012245;28;20384;-84
2021/11/17 09:06:13;;;;;;;81.72;34.42;;;8.10;99.90;;;;;;5013073;28;20133;-84
2021/11/17 09:08:40;;;;;;;86.07;37.03;;;8.10;99.90;;;;;;5011712;28;20537;-84
2021/11/17 09:11:09;;;;;;;90.30;36.00;;;8.10;99.90;;;;;;5014925;28;20037;-84
2021/11/17 09:13:36;;;;;;;82.57;33.70;;;8.10;99.90;;;;;;5014555;28;20385;-84
2021/11/17 09:16:02;;;;;;;95.88;37.15;;;8.20;99.90;;;;;;5013529;28;20038;-83
2021/11/17 09:18:32;;;;;;;85.50;35.05;;;8.20;99.90;;;;;;5010473;28;20059;-83
2021/11/17 09:20:58;;;;;;;84.63;35.65;;;8.20;99.90;;;;;;5014429;28;20377;-83
2021/11/17 09:23:26;;;;;;;73.25;32.53;;;8.10;99.90;;;;;;5014305;28;20042;-83
2021/11/17 09:25:53;;;;;;;79.07;34.25;;;8.20;99.90;;;;;;5015498;28;20042;-83
2021/11/17 09:28:19;;;;;;;77.07;34.05;;;8.20;99.90;;;;;;5013304;28;20037;-83
2021/11/17 09:30:45;;;;;;;72.20;32.72;;;8.20;99.90;;;;;;5016235;28;20045;-83
2021/11/17 09:33:12;;;;;;;66.72;31.05;;;8.20;99.90;;;;;;5016012;28;20116;-83
2021/11/17 09:35:38;;;;;;;86.65;34.47;;;8.20;99.90;;;;;;5013059;28;20995;-83
2021/11/17 09:38:08;;;;;;;73.80;31.60;;;8.30;99.90;;;;;;5018517;28;20041;-82
2021/11/17 09:40:41;;;;;;;68.55;31.17;;;8.30;99.90;;;;;;5027120;28;20453;-83
2021/11/17 09:43:09;;;;;;;76.80;31.30;;;8.30;99.90;;;;;;5024559;28;20055;-83
2021/11/17 09:45:36;;;;;;;76.78;31.67;;;8.30;99.90;;;;;;5027188;28;20037;-82
2021/11/17 09:48:02;;;;;;;73.35;30.63;;;8.30;99.90;;;;;;5010445;28;20073;-82
2021/11/17 09:50:34;;;;;;;67.47;28.70;;;8.40;99.90;;;;;;5018784;28;20393;-82
2021/11/17 09:53:18;;;;;;;71.80;29.05;;;8.40;99.90;;;;;;5021152;28;20051;-82
2021/11/17 09:55:53;;;;;;;73.65;30.33;;;8.40;99.90;;;;;;5025207;28;20110;-82
2021/11/17 09:58:23;;;;;;;64.75;28.55;;;8.40;99.90;;;;;;5007387;28;20042;-83
2021/11/17 10:00:51;;;;;;;64.45;28.25;;;8.50;99.90;;;;;;5011236;28;20069;-82
2021/11/17 10:03:58;;;;;;;60.78;26.88;;;8.50;99.90;;;;;;5024412;28;20459;-82
2021/11/17 10:15:02;;;;;;;70.30;27.55;;;8.60;99.90;;;;;;5019563;28;20061;-83
2021/11/17 10:17:43;;;;;;;66.80;28.63;;;8.60;99.90;;;;;;5019070;28;20546;-83
2021/11/17 10:20:14;;;;;;;75.80;28.35;;;8.70;99.90;;;;;;5023300;28;20100;-84
2021/11/17 10:22:43;;;;;;;63.67;26.73;;;8.70;99.90;;;;;;5018468;28;20099;-83
2021/11/17 10:25:22;;;;;;;58.25;25.58;;;8.80;99.90;;;;;;5025166;28;20055;-83
2021/11/17 10:28:06;;;;;;;73.25;28.40;;;8.80;99.90;;;;;;5027692;28;20504;-83
2021/11/17 10:30:36;;;;;;;61.35;26.15;;;8.80;99.90;;;;;;5015785;28;20095;-83
2021/11/17 10:33:14;;;;;;;71.97;28.10;;;8.90;99.90;;;;;;5030332;28;20037;-84
2021/11/17 10:36:16;;;;;;;67.65;27.40;;;8.90;99.90;;;;;;5026195;28;20061;-84
2021/11/17 10:38:48;;;;;;;52.38;24.25;;;8.90;99.90;;;;;;5030746;28;20071;-84
2021/11/17 10:41:28;;;;;;;53.17;24.67;;;9.00;99.90;;;;;;5016518;28;20128;-84
2021/11/17 10:44:05;;;;;;;64.22;25.60;;;8.90;99.90;;;;;;5021364;28;20184;-84
2021/11/17 10:46:35;;;;;;;63.25;26.98;;;9.00;99.90;;;;;;5008464;28;20405;-84
2021/11/17 10:49:06;;;;;;;75.75;28.58;;;9.00;99.90;;;;;;5015850;28;20120;-83
2021/11/17 10:51:36;;;;;;;59.03;25.33;;;9.00;99.90;;;;;;5024337;28;20045;-84
2021/11/17 10:54:11;;;;;;;77.85;29.17;;;9.10;99.90;;;;;;5022663;28;20290;-84
2021/11/17 10:56:38;;;;;;;71.50;25.90;;;9.10;99.90;;;;;;5016652;28;20046;-84
2021/11/17 10:59:05;;;;;;;72.15;27.85;;;9.20;99.90;;;;;;5014908;28;20057;-84
2021/11/17 11:01:37;;;;;;;57.08;23.88;;;9.30;99.90;;;;;;5004880;28;20045;-83
2021/11/17 11:04:16;;;;;;;68.00;24.13;;;9.40;99.90;;;;;;5015191;28;20132;-83
2021/11/17 11:06:49;;;;;;;60.90;22.23;;;9.40;99.90;;;;;;5014706;28;20046;-83
2021/11/17 11:09:37;;;;;;;58.20;21.05;;;9.50;99.90;;;;;;5031146;28;20041;-83
2021/11/17 11:12:04;;;;;;;46.78;18.02;;;9.60;99.90;;;;;;5028237;28;20049;-83
2021/11/17 11:14:55;;;;;;;44.55;15.80;;;9.70;99.90;;;;;;5019010;28;20052;-83
2021/11/17 11:17:42;;;;;;;38.13;14.13;;;9.70;99.90;;;;;;5010160;28;20057;-83
2021/11/17 11:20:17;;;;;;;42.90;13.32;;;9.80;99.90;;;;;;5021933;28;20065;-83
2021/11/17 11:23:04;;;;;;;32.28;12.30;;;9.90;99.90;;;;;;5032130;28;20045;-83
2021/11/17 11:25:38;;;;;;;34.40;10.75;;;9.90;99.90;;;;;;5024264;28;20041;-83
2021/11/17 11:28:19;;;;;;;32.90;10.00;;;10.00;99.90;;;;;;5022331;28;20508;-84
2021/11/17 11:30:47;;;;;;;34.08;8.90;;;10.00;99.90;;;;;;5034813;28;20506;-84
2021/11/17 11:33:34;;;;;;;35.22;8.30;;;10.10;99.90;;;;;;5035737;28;20124;-83
2021/11/17 11:36:12;;;;;;;28.77;6.32;;;10.20;99.90;;;;;;5035811;28;20041;-84
2021/11/17 11:39:01;;;;;;;30.67;6.55;;;10.20;99.90;;;;;;5036145;28;20539;-84
2021/11/17 11:41:43;;;;;;;22.50;5.90;;;10.30;99.90;;;;;;4991084;28;20067;-84
2021/11/17 11:44:23;;;;;;;20.40;4.47;;;10.30;99.90;;;;;;5035644;28;20048;-85
2021/11/17 11:46:57;;;;;;;23.27;4.00;;;10.30;99.90;;;;;;5035979;28;20080;-84
2021/11/17 11:49:36;;;;;;;29.50;4.47;;;10.40;99.90;;;;;;5035460;28;20045;-85
2021/11/17 11:52:21;;;;;;;22.58;5.10;;;10.40;99.90;;;;;;5035272;28;20099;-84
2021/11/17 11:54:58;;;;;;;29.17;5.00;;;10.40;99.70;;;;;;5035150;28;20384;-84
2021/11/17 11:57:32;;;;;;;21.42;4.60;;;10.50;99.70;;;;;;5035280;28;20423;-84
2021/11/17 12:00:16;;;;;;;25.60;4.20;;;10.50;99.30;;;;;;5027378;28;20049;-84
2021/11/17 12:02:53;;;;;;;;;;;10.50;99.10;;;;;;5016182;28;20037;-83
2021/11/17 12:05:38;;;;;;;18.75;3.38;;;10.50;98.90;;;;;;5014658;28;20411;-84
2021/11/17 12:08:17;;;;;;;21.45;3.67;;;10.60;99.00;;;;;;5013451;28;20057;-88
2021/11/17 12:10:57;;;;;;;20.35;4.05;;;10.60;98.80;;;;;;5015394;28;20119;-87
2021/11/17 12:13:29;;;;;;;19.33;3.75;;;10.70;98.50;;;;;;5015993;28;20049;-87
2021/11/17 12:15:58;;;;;;;22.50;3.70;;;10.70;98.30;;;;;;5014774;28;20041;-86
2021/11/17 12:18:27;;;;;;;18.50;4.00;;;10.70;98.10;;;;;;5015183;28;20037;-85
2021/11/17 12:20:59;;;;;;;20.52;3.28;;;10.80;98.20;;;;;;5015601;28;20384;-84
2021/11/17 12:23:29;;;;;;;21.40;3.42;;;10.80;97.50;;;;;;5014684;28;20075;-84
2021/11/17 12:25:57;;;;;;;19.25;3.15;;;10.90;97.40;;;;;;5014246;28;20548;-84
2021/11/17 12:28:24;;;;;;;21.10;3.40;;;10.90;97.20;;;;;;5035456;28;20060;-84
2021/11/17 12:31:14;;;;;;;13.77;3.15;;;10.90;96.90;;;;;;5018741;28;20041;-85
2021/11/17 12:33:49;;;;;;;15.65;3.00;;;10.90;96.40;;;;;;5020217;28;20052;-85
2021/11/17 12:36:21;;;;;;;16.80;3.03;;;10.90;96.30;;;;;;5019571;28;20034;-85
2021/11/17 12:38:48;;;;;;;18.95;3.30;;;11.00;96.10;;;;;;5019833;28;20056;-83
2021/11/17 12:41:26;;;;;;;21.70;3.75;;;11.00;96.10;;;;;;5030986;28;20516;-83
2021/11/17 12:44:09;;;;;;;19.98;3.17;;;11.00;96.00;;;;;;4999668;28;20052;-83
2021/11/17 12:46:41;;;;;;;14.73;2.90;;;11.00;95.60;;;;;;5024999;28;20048;-83
2021/11/17 12:49:34;;;;;;;16.02;2.88;;;11.00;95.50;;;;;;5019503;28;20386;-82
2021/11/17 12:52:19;;;;;;;17.98;3.28;;;11.00;95.30;;;;;;5012555;28;20052;-83
2021/11/17 12:54:50;;;;;;;21.92;3.55;;;11.00;95.30;;;;;;5018621;28;20104;-83
2021/11/17 12:57:28;;;;;;;21.35;3.10;;;11.00;95.50;;;;;;5014405;28;20080;-84
2021/11/17 13:00:03;;;;;;;22.20;3.33;;;11.10;95.30;;;;;;5004913;28;20045;-84
2021/11/17 13:02:41;;;;;;;18.58;3.30;;;11.10;95.20;;;;;;5019891;28;20062;-83
2021/11/17 13:05:21;;;;;;;18.45;3.13;;;11.10;95.20;;;;;;5031001;28;20038;-83
2021/11/17 13:07:59;;;;;;;20.58;2.95;;;11.10;95.00;;;;;;5007026;28;20041;-83
2021/11/17 13:10:28;;;;;;;17.30;2.40;;;11.10;94.90;;;;;;5028498;28;20120;-83
2021/11/17 13:13:26;;;;;;;14.95;2.60;;;11.10;94.50;;;;;;5031651;28;20503;-84
2021/11/17 13:15:51;;;;;;;15.52;2.50;;;11.10;94.10;;;;;;5016694;28;20087;-82
2021/11/17 13:18:33;;;;;;;16.42;2.97;;;11.10;94.50;;;;;;5029006;28;20049;-83
2021/11/17 13:21:15;;;;;;;17.77;3.00;;;11.10;94.20;;;;;;5018971;28;20119;-83
2021/11/17 13:23:52;;;;;;;17.85;2.78;;;11.10;94.30;;;;;;5034662;28;20048;-83
2021/11/17 13:26:26;;;;;;;21.95;2.80;;;11.10;94.20;;;;;;5019014;28;20135;-83
2021/11/17 13:28:53;;;;;;;18.15;2.60;;;11.10;94.10;;;;;;5019889;28;20045;-83
2021/11/17 13:31:24;;;;;;;12.48;2.65;;;11.10;94.00;;;;;;5022454;28;20041;-83
2021/11/17 13:34:12;;;;;;;16.02;2.38;;;11.10;93.90;;;;;;5007491;28;20045;-85
2021/11/17 13:36:51;;;;;;;15.15;2.42;;;11.10;93.20;;;;;;5028738;28;20072;-84
2021/11/17 13:39:20;;;;;;;13.20;2.13;;;11.20;93.20;;;;;;5021080;28;20056;-83
2021/11/17 13:41:49;;;;;;;17.05;2.35;;;11.20;93.10;;;;;;5017602;28;20100;-84
2021/11/17 13:44:18;;;;;;;13.70;2.60;;;11.10;92.70;;;;;;5025425;28;20033;-84
2021/11/17 13:47:15;;;;;;;15.32;2.47;;;11.20;92.80;;;;;;5034714;28;20084;-84
2021/11/17 13:49:43;;;;;;;12.07;2.10;;;11.20;92.40;;;;;;5018048;28;20056;-83
2021/11/17 13:52:13;;;;;;;15.73;2.20;;;11.10;92.70;;;;;;5030213;28;20049;-84
2021/11/17 13:54:39;;;;;;;15.18;2.28;;;11.10;92.60;;;;;;5028176;28;20064;-84
2021/11/17 13:57:07;;;;;;;11.25;2.10;;;11.10;92.60;;;;;;5022151;28;20042;-83
2021/11/17 13:59:33;;;;;;;16.50;2.28;;;11.10;92.60;;;;;;5017594;28;20045;-84
2021/11/17 14:02:00;;;;;;;11.45;2.20;;;11.00;92.40;;;;;;5019353;28;20052;-83
2021/11/17 14:04:26;;;;;;;15.63;2.60;;;11.00;92.60;;;;;;5021217;28;20138;-84
2021/11/17 14:06:54;;;;;;;12.85;2.50;;;11.00;92.50;;;;;;5030777;28;20052;-83
2021/11/17 14:09:22;;;;;;;14.27;1.95;;;10.90;92.60;;;;;;5019225;28;20504;-86
2021/11/17 14:11:51;;;;;;;9.80;2.10;;;10.90;92.50;;;;;;5018240;28;20495;-84
2021/11/17 14:14:16;;;;;;;19.10;2.92;;;10.90;92.70;;;;;;5025457;28;20048;-84
2021/11/17 14:16:42;;;;;;;13.23;2.05;;;10.80;92.70;;;;;;5023599;28;20041;-83
2021/11/17 14:19:08;;;;;;;11.90;2.20;;;10.80;92.70;;;;;;5031952;28;20049;-84
2021/11/17 14:21:34;;;;;;;13.52;2.20;;;10.80;92.80;;;;;;5018217;28;20052;-84
2021/11/17 14:24:01;;;;;;;15.00;2.28;;;10.70;92.80;;;;;;5022004;28;20041;-84
2021/11/17 14:26:27;;;;;;;15.30;2.75;;;10.70;92.80;;;;;;5018983;28;20030;-84
2021/11/17 14:29:07;;;;;;;16.60;2.40;;;10.70;92.80;;;;;;5017702;28;20400;-84
2021/11/17 14:31:44;;;;;;;13.88;2.15;;;10.70;92.70;;;;;;5031380;28;20048;-84
2021/11/17 14:34:11;;;;;;;16.58;2.35;;;10.60;92.80;;;;;;5014700;28;20060;-83
2021/11/17 14:36:46;;;;;;;18.27;2.60;;;10.60;93.10;;;;;;5018637;28;20041;-84
2021/11/17 14:39:12;;;;;;;16.80;2.60;;;10.60;93.30;;;;;;5028050;28;20049;-83
2021/11/17 14:41:38;;;;;;;19.67;2.42;;;10.60;93.50;;;;;;5015446;28;20528;-83
2021/11/17 14:44:04;;;;;;;15.27;2.38;;;10.60;93.50;;;;;;5004534;28;20042;-83
2021/11/17 14:46:30;;;;;;;15.98;2.17;;;10.50;93.40;;;;;;5024827;28;20051;-83
2021/11/17 14:48:56;;;;;;;15.00;2.33;;;10.50;93.50;;;;;;5023262;28;20045;-85
2021/11/17 14:51:22;;;;;;;15.68;2.33;;;10.50;93.70;;;;;;5032707;28;20072;-86
2021/11/17 14:53:50;;;;;;;16.23;3.13;;;10.50;93.90;;;;;;5013184;28;20404;-85
2021/11/17 14:56:17;;;;;;;10.68;2.10;;;10.40;93.90;;;;;;5014660;28;20061;-86
2021/11/17 14:58:43;;;;;;;15.82;2.72;;;10.40;94.20;;;;;;5028761;28;20052;-85
2021/11/17 15:01:19;;;;;;;15.38;2.47;;;10.40;94.10;;;;;;5019074;28;20037;-85
2021/11/17 15:03:46;;;;;;;12.65;3.03;;;10.40;94.10;;;;;;5007611;28;20090;-86
2021/11/17 15:06:15;;;;;;;14.43;3.08;;;10.40;94.10;;;;;;5008432;28;21643;-86
2021/11/17 15:08:41;;;;;;;17.60;3.67;;;10.40;94.00;;;;;;5023360;28;20042;-86
2021/11/17 15:11:07;;;;;;;10.48;2.38;;;10.30;94.00;;;;;;5024877;28;20039;-85
2021/11/17 15:13:33;;;;;;;13.93;2.88;;;10.30;94.20;;;;;;5020014;28;20057;-86
2021/11/17 15:15:59;;;;;;;11.98;2.65;;;10.20;94.20;;;;;;5027031;28;20041;-84
2021/11/17 15:18:27;;;;;;;13.07;3.03;;;10.30;94.40;;;;;;5028545;28;20029;-84
2021/11/17 15:20:53;;;;;;;13.80;2.97;;;10.20;94.40;;;;;;5022544;28;20044;-85
2021/11/17 15:23:20;;;;;;;13.38;2.65;;;10.20;94.40;;;;;;5024961;28;20129;-85
2021/11/17 15:25:47;;;;;;;11.77;2.40;;;10.20;94.40;;;;;;5026047;28;20045;-85
2021/11/17 15:28:17;;;;;;;13.77;2.88;;;10.10;94.60;;;;;;5020657;28;20500;-86
2021/11/17 15:30:47;;;;;;;16.25;2.70;;;10.10;94.40;;;;;;5027694;28;20083;-85
2021/11/17 15:33:16;;;;;;;16.25;2.85;;;10.00;94.10;;;;;;5018973;28;20516;-84
2021/11/17 15:35:42;;;;;;;12.07;3.80;;;10.00;94.10;;;;;;5011603;28;20045;-84
2021/11/17 15:38:09;;;;;;;11.65;2.85;;;10.00;94.20;;;;;;5018696;28;20053;-84
2021/11/17 15:40:38;;;;;;;9.48;2.40;;;10.00;94.60;;;;;;5013262;28;20053;-84
2021/11/17 15:43:04;;;;;;;10.45;2.20;;;9.90;94.70;;;;;;5024347;28;20041;-84
2021/11/17 15:45:30;;;;;;;14.60;2.45;;;9.90;94.90;;;;;;5016789;28;20136;-87
2021/11/17 15:47:56;;;;;;;9.10;2.38;;;9.90;94.70;;;;;;5030367;28;20061;-84
2021/11/17 15:50:25;;;;;;;10.93;2.75;;;9.90;94.80;;;;;;5021504;28;20068;-84